Excellent Pescadores — HORK — position and weather

sailwx.info

Track history (hours):
 
Tides and Currents Weather Stations Pressure Air Temp Water Temp Dewpoint Dewpoint Depression Visibility Wind Speed Wind Dir Waves Ship Positions

Excellent Pescadores

Last reported at 2016-Aug-23 18:17 UTC. Time now 2016-Aug-24 18:01 UTC.
Position N 30°46' E 122°55'.

Length 148 m; draft 8.6 m.

Type: Cargo ship. MMSI: 356291000.

Date/timePositionNaut miles runAvg speedWind from/ knotsBaromVisibWave heightAir tempDewpointWater temp
2016-Aug-23 18:17N 30°46' E 122°55'70 9.9
2016-Aug-23 11:14N 31°19' E 121°43'812.1
2016-Aug-23 10:32N 31°23' E 121°35'1010.7
2016-Aug-23 09:33N 31°29' E 121°24'2 1.9
2016-Aug-23 08:32N 31°30' E 121°22'0 0.0
2016-Aug-23 07:26N 31°30' E 121°22'0 0.0
2016-Aug-23 06:29N 31°30' E 121°22'0 0.0
2016-Aug-23 05:32N 31°30' E 121°22'0 0.0
2016-Aug-23 04:32N 31°30' E 121°22'0 0.0
2016-Aug-23 03:32N 31°30' E 121°22'0 0.0
2016-Aug-23 02:32N 31°30' E 121°22'0 0.0
2016-Aug-23 01:29N 31°30' E 121°22'0 0.0
2016-Aug-23 00:32N 31°30' E 121°22'0 0.0
2016-Aug-22 23:32N 31°30' E 121°22'0 0.0
2016-Aug-22 22:32N 31°30' E 121°22'0 0.0
2016-Aug-22 21:32N 31°30' E 121°22'0 0.0
2016-Aug-22 20:32N 31°30' E 121°22'0 0.0
2016-Aug-22 19:32N 31°30' E 121°22'0 0.0
2016-Aug-22 18:32N 31°30' E 121°22'0 0.0
2016-Aug-22 17:32N 31°30' E 121°22'0 0.0
2016-Aug-22 16:32N 31°30' E 121°22'0 0.0
2016-Aug-22 15:26N 31°30' E 121°22'0 0.0
2016-Aug-22 14:20N 31°30' E 121°22'0 0.0
2016-Aug-22 13:32N 31°30' E 121°22'0 0.0
2016-Aug-22 12:32N 31°30' E 121°22'0 0.0
2016-Aug-22 11:32N 31°30' E 121°22'0 0.0
2016-Aug-22 10:32N 31°30' E 121°22'0 0.0
2016-Aug-22 09:32N 31°30' E 121°22'0 0.0
2016-Aug-22 08:32N 31°30' E 121°22'0 0.0
2016-Aug-22 07:32N 31°30' E 121°22'0 0.0
2016-Aug-22 06:31N 31°30' E 121°22'0 0.1
2016-Aug-22 05:31N 31°30' E 121°22'0 0.1
2016-Aug-22 04:31N 31°30' E 121°22'0 0.0
2016-Aug-22 03:31N 31°30' E 121°22'0 0.0
2016-Aug-22 02:32N 31°30' E 121°22'0 0.0
2016-Aug-22 01:31N 31°30' E 121°22'0 0.0
2016-Aug-22 00:25N 31°30' E 121°22'0 0.0
2016-Aug-21 23:31N 31°30' E 121°22'0 0.0
2016-Aug-21 22:31N 31°30' E 121°22'0 0.0
2016-Aug-21 21:31N 31°30' E 121°22'0 0.0
2016-Aug-21 20:25N 31°30' E 121°22'0 0.0
2016-Aug-21 19:31N 31°30' E 121°22'0 0.0
2016-Aug-21 18:31N 31°30' E 121°22'0 0.0
2016-Aug-21 17:31N 31°30' E 121°22'0 0.0
2016-Aug-21 16:31N 31°30' E 121°22'0 0.0
2016-Aug-21 15:25N 31°30' E 121°22'0 0.0
2016-Aug-21 14:31N 31°30' E 121°22'0 0.0
2016-Aug-21 13:31N 31°30' E 121°22'0 0.0
2016-Aug-21 12:31N 31°30' E 121°22'0 0.0
2016-Aug-21 11:31N 31°30' E 121°22'0 0.0
2016-Aug-21 10:25N 31°30' E 121°22'0 0.0
2016-Aug-21 09:31N 31°30' E 121°22'0 0.0
2016-Aug-21 08:31N 31°30' E 121°22'0 0.0
2016-Aug-21 07:31N 31°30' E 121°22'0 0.0
2016-Aug-21 06:31N 31°30' E 121°22'0 0.0
2016-Aug-21 05:31N 31°30' E 121°22'0 0.0
2016-Aug-21 04:22N 31°30' E 121°22'0 0.0
2016-Aug-21 03:31N 31°30' E 121°22'0 0.0
2016-Aug-21 02:31N 31°30' E 121°22'0 0.0
2016-Aug-21 01:31N 31°30' E 121°22'0 0.0
2016-Aug-21 00:31N 31°30' E 121°22'0 0.0
2016-Aug-20 23:25N 31°30' E 121°22'0 0.0
2016-Aug-20 22:31N 31°30' E 121°22'0 0.0
2016-Aug-20 21:34N 31°30' E 121°22'0 0.1
2016-Aug-20 20:33N 31°30' E 121°22'2 1.7
2016-Aug-20 19:34N 31°31' E 121°24'0 0.1
2016-Aug-20 18:28N 31°31' E 121°24'0 0.0
2016-Aug-20 17:31N 31°31' E 121°24'0 0.0
2016-Aug-20 16:31N 31°31' E 121°24'0 0.2
2016-Aug-20 15:31N 31°31' E 121°24'0 0.0
2016-Aug-20 14:33N 31°31' E 121°24'1010.4
2016-Aug-20 13:33N 31°38' E 121°15'  
2016-Aug-17 23:23N 31°46' E 121°02'7 8.9
2016-Aug-17 22:33N 31°42' E 121°09'7 6.6
2016-Aug-17 21:31N 31°38' E 121°16'0 0.0
2016-Aug-17 20:31N 31°38' E 121°16'0 0.1
2016-Aug-17 19:31N 31°38' E 121°16'0 0.1
2016-Aug-17 18:34N 31°38' E 121°16'0 0.0
2016-Aug-17 17:33N 31°38' E 121°16'0 0.0
2016-Aug-17 16:33N 31°38' E 121°16'0 0.0
2016-Aug-17 15:33N 31°38' E 121°16'0 0.1
2016-Aug-17 14:33N 31°38' E 121°15'0 0.2
2016-Aug-17 13:33N 31°38' E 121°16'0 0.0
2016-Aug-17 12:33N 31°38' E 121°16'0 0.0
2016-Aug-17 11:33N 31°38' E 121°16'0 0.0
2016-Aug-17 10:33N 31°38' E 121°16'0 0.0
2016-Aug-17 09:33N 31°38' E 121°16'0 0.0
2016-Aug-17 08:27N 31°38' E 121°16'3 3.5
2016-Aug-17 07:33N 31°36' E 121°18'1111.2
2016-Aug-17 06:33N 31°28' E 121°27'8 7.9
2016-Aug-17 05:33N 31°23' E 121°35'78 3.5
2016-Aug-16 07:17N 30°46' E 122°54'41611.9
2016-Aug-14 20:18N 24°38' E 119°17'5013.0
2016-Aug-14 16:29N 24°06' E 118°34'1211.7
2016-Aug-14 15:28N 23°59' E 118°24'  
Track history (hours):
 
Tides and Currents Weather Stations Pressure Air Temp Water Temp Dewpoint Dewpoint Depression Visibility Wind Speed Wind Dir Waves Ship Positions

Excellent Pescadores

Last reported at 2016-Aug-23 18:17 UTC. Time now 2016-Aug-24 18:01 UTC.
Position N 30°46' E 122°55'.

Length 148 m; draft 8.6 m.

Type: Cargo ship. MMSI: 356291000.

Date/timePositionNaut miles runAvg speedWind from/ knotsBaromVisibWave heightAir tempDewpointWater temp
2016-Aug-23 18:17N 30°46' E 122°55'70 9.9
2016-Aug-23 11:14N 31°19' E 121°43'812.1
2016-Aug-23 10:32N 31°23' E 121°35'1010.7
2016-Aug-23 09:33N 31°29' E 121°24'2 1.9
2016-Aug-23 08:32N 31°30' E 121°22'0 0.0
2016-Aug-23 07:26N 31°30' E 121°22'0 0.0
2016-Aug-23 06:29N 31°30' E 121°22'0 0.0
2016-Aug-23 05:32N 31°30' E 121°22'0 0.0
2016-Aug-23 04:32N 31°30' E 121°22'0 0.0
2016-Aug-23 03:32N 31°30' E 121°22'0 0.0
2016-Aug-23 02:32N 31°30' E 121°22'0 0.0
2016-Aug-23 01:29N 31°30' E 121°22'0 0.0
2016-Aug-23 00:32N 31°30' E 121°22'0 0.0
2016-Aug-22 23:32N 31°30' E 121°22'0 0.0
2016-Aug-22 22:32N 31°30' E 121°22'0 0.0
2016-Aug-22 21:32N 31°30' E 121°22'0 0.0
2016-Aug-22 20:32N 31°30' E 121°22'0 0.0
2016-Aug-22 19:32N 31°30' E 121°22'0 0.0
2016-Aug-22 18:32N 31°30' E 121°22'0 0.0
2016-Aug-22 17:32N 31°30' E 121°22'0 0.0
2016-Aug-22 16:32N 31°30' E 121°22'0 0.0
2016-Aug-22 15:26N 31°30' E 121°22'0 0.0
2016-Aug-22 14:20N 31°30' E 121°22'0 0.0
2016-Aug-22 13:32N 31°30' E 121°22'0 0.0
2016-Aug-22 12:32N 31°30' E 121°22'0 0.0
2016-Aug-22 11:32N 31°30' E 121°22'0 0.0
2016-Aug-22 10:32N 31°30' E 121°22'0 0.0
2016-Aug-22 09:32N 31°30' E 121°22'0 0.0
2016-Aug-22 08:32N 31°30' E 121°22'0 0.0
2016-Aug-22 07:32N 31°30' E 121°22'0 0.0
2016-Aug-22 06:31N 31°30' E 121°22'0 0.1
2016-Aug-22 05:31N 31°30' E 121°22'0 0.1
2016-Aug-22 04:31N 31°30' E 121°22'0 0.0
2016-Aug-22 03:31N 31°30' E 121°22'0 0.0
2016-Aug-22 02:32N 31°30' E 121°22'0 0.0
2016-Aug-22 01:31N 31°30' E 121°22'0 0.0
2016-Aug-22 00:25N 31°30' E 121°22'0 0.0
2016-Aug-21 23:31N 31°30' E 121°22'0 0.0
2016-Aug-21 22:31N 31°30' E 121°22'0 0.0
2016-Aug-21 21:31N 31°30' E 121°22'0 0.0
2016-Aug-21 20:25N 31°30' E 121°22'0 0.0
2016-Aug-21 19:31N 31°30' E 121°22'0 0.0
2016-Aug-21 18:31N 31°30' E 121°22'0 0.0
2016-Aug-21 17:31N 31°30' E 121°22'0 0.0
2016-Aug-21 16:31N 31°30' E 121°22'0 0.0
2016-Aug-21 15:25N 31°30' E 121°22'0 0.0
2016-Aug-21 14:31N 31°30' E 121°22'0 0.0
2016-Aug-21 13:31N 31°30' E 121°22'0 0.0
2016-Aug-21 12:31N 31°30' E 121°22'0 0.0
2016-Aug-21 11:31N 31°30' E 121°22'0 0.0
2016-Aug-21 10:25N 31°30' E 121°22'0 0.0
2016-Aug-21 09:31N 31°30' E 121°22'0 0.0
2016-Aug-21 08:31N 31°30' E 121°22'0 0.0
2016-Aug-21 07:31N 31°30' E 121°22'0 0.0
2016-Aug-21 06:31N 31°30' E 121°22'0 0.0
2016-Aug-21 05:31N 31°30' E 121°22'0 0.0
2016-Aug-21 04:22N 31°30' E 121°22'0 0.0
2016-Aug-21 03:31N 31°30' E 121°22'0 0.0
2016-Aug-21 02:31N 31°30' E 121°22'0 0.0
2016-Aug-21 01:31N 31°30' E 121°22'0 0.0
2016-Aug-21 00:31N 31°30' E 121°22'0 0.0
2016-Aug-20 23:25N 31°30' E 121°22'0 0.0
2016-Aug-20 22:31N 31°30' E 121°22'0 0.0
2016-Aug-20 21:34N 31°30' E 121°22'0 0.1
2016-Aug-20 20:33N 31°30' E 121°22'2 1.7
2016-Aug-20 19:34N 31°31' E 121°24'0 0.1
2016-Aug-20 18:28N 31°31' E 121°24'0 0.0
2016-Aug-20 17:31N 31°31' E 121°24'0 0.0
2016-Aug-20 16:31N 31°31' E 121°24'0 0.2
2016-Aug-20 15:31N 31°31' E 121°24'0 0.0
2016-Aug-20 14:33N 31°31' E 121°24'1010.4
2016-Aug-20 13:33N 31°38' E 121°15'  
2016-Aug-17 23:23N 31°46' E 121°02'7 8.9
2016-Aug-17 22:33N 31°42' E 121°09'7 6.6
2016-Aug-17 21:31N 31°38' E 121°16'0 0.0
2016-Aug-17 20:31N 31°38' E 121°16'0 0.1
2016-Aug-17 19:31N 31°38' E 121°16'0 0.1
2016-Aug-17 18:34N 31°38' E 121°16'0 0.0
2016-Aug-17 17:33N 31°38' E 121°16'0 0.0
2016-Aug-17 16:33N 31°38' E 121°16'0 0.0
2016-Aug-17 15:33N 31°38' E 121°16'0 0.1
2016-Aug-17 14:33N 31°38' E 121°15'0 0.2
2016-Aug-17 13:33N 31°38' E 121°16'0 0.0
2016-Aug-17 12:33N 31°38' E 121°16'0 0.0
2016-Aug-17 11:33N 31°38' E 121°16'0 0.0
2016-Aug-17 10:33N 31°38' E 121°16'0 0.0
2016-Aug-17 09:33N 31°38' E 121°16'0 0.0
2016-Aug-17 08:27N 31°38' E 121°16'3 3.5
2016-Aug-17 07:33N 31°36' E 121°18'1111.2
2016-Aug-17 06:33N 31°28' E 121°27'8 7.9
2016-Aug-17 05:33N 31°23' E 121°35'78 3.5
2016-Aug-16 07:17N 30°46' E 122°54'41611.9
2016-Aug-14 20:18N 24°38' E 119°17'5013.0
2016-Aug-14 16:29N 24°06' E 118°34'1211.7
2016-Aug-14 15:28N 23°59' E 118°24'  

Dump ship's entire track history